• Join FlightAware (Why Join?)
  • Login
  • US Flag 
02:43AM EDT


 

Airport Tracker/Info


-or-


 

Live Flight TrackerFlight Track Log ✈ EGF3765 ✈ 08-Feb-2014 ✈ KORD - KFAR

Flight Track Log - Related Links

Times and Time Zones

All times are in EST time to prevent confusion due to time zone crossing. See the EGF3765 flight status page for this flight to view local times or setup timezone preferences in your user account.

Time Position Orientation Groundspeed Altitude Reporting Facility
EST Latitude Longitude Course Direction KTS MPH feet Rate Location/Type
10:54AM 42.0333 -87.9833 345° North 204 235 3,400  Level Chicago TRACON
10:56AM 42.2636 -87.9934 346° North  Level FlightAware Approximate
10:56AM 42.1428 -88.0089 350° North 240 276 7,200  Level Chicago Center
10:57AM 42.3512 -88.0337 350° North  Level FlightAware Approximate
10:57AM 42.2161 -88.0231 352° North 262 302 9,500  Level Chicago Center
10:58AM 42.4515 -88.0570 352° North  Level FlightAware Approximate
10:58AM 42.2967 -88.0375 352° North 287 330 10,800  Level Chicago Center
10:59AM 42.5458 -88.0937 345° North  Level FlightAware Approximate
10:59AM 42.3944 -88.0528 353° North 324 373 12,000  Level Chicago Center
11:00AM 42.6424 -88.1282 345° North  Level FlightAware Approximate
11:00AM 42.4886 -88.0728 351° North 339 390 13,300  Level Chicago Center
11:01AM 42.5792 -88.1064 345° North 339 390 14,700 1,260 Climbing Chicago Center
11:02AM 42.6747 -88.1375 347° North 349 402 16,000 1,260 Climbing Chicago Center
11:03AM 42.7561 -88.1933 333° Northwest 342 394 17,400 1,200 Climbing Chicago Center
11:04AM 42.8058 -88.2964 303° West 330 380 18,500 1,140 Climbing Chicago Center
11:05AM 42.8581 -88.3983 305° West 327 376 19,800 1,260 Climbing Chicago Center
11:08AM 43.0194 -88.7244 310° West 349 402 23,700 1,260 Climbing Chicago Center
11:09AM 43.0867 -88.8572 305° West 352 405 25,200 1,380 Climbing Chicago Center
11:10AM 43.1411 -88.9703 303° West 354 407 26,600 1,320 Climbing Chicago Center
11:11AM 43.1986 -89.0831 305° West 360 414 27,900 1,200 Climbing Chicago Center
11:12AM 43.2508 -89.1933 303° West 348 400 29,100 1,020 Climbing Chicago Center
11:13AM 43.3047 -89.3025 304° West 345 397 30,000 420 Climbing Chicago Center
11:14AM 43.3062 -89.3659 310° West  Level FlightAware Approximate
11:14AM 43.3586 -89.4178 303° West 354 407 30,000  Level Chicago Center
11:16AM 43.4550 -89.6158 304° West 385 443 30,000  Level Minneapolis Center
11:17AM 43.5167 -89.7456 303° West 399 459 30,000  Level Minneapolis Center
11:18AM 43.5781 -89.8719 304° West 399 459 30,000  Level Minneapolis Center
11:19AM 43.6386 -89.9994 303° West 398 458 30,000  Level Minneapolis Center
11:20AM 43.7356 -90.2050 303° West 402 463 30,000  Level Chicago Center
11:21AM 43.7931 -90.3328 302° West 400 460 30,000  Level Chicago Center
11:23AM 43.8783 -90.5117 304° West 396 456 30,000  Level Minneapolis Center
11:24AM 43.9483 -90.6644 303° West 399 459 30,000  Level Minneapolis Center
11:25AM 44.0081 -90.7933 303° West 399 459 30,000  Level Minneapolis Center
11:26AM 44.0669 -90.9217 303° West 398 458 30,000  Level Minneapolis Center
11:29AM 44.2542 -91.3328 303° West 401 461 30,000  Level Minneapolis Center
11:30AM 44.3156 -91.4631 303° West 402 463 30,000  Level Minneapolis Center
11:31AM 44.3742 -91.5969 302° West 403 464 30,000  Level Minneapolis Center
11:32AM 44.4328 -91.7306 302° West 404 465 30,000  Level Minneapolis Center
11:33AM 44.4931 -91.8636 302° West 406 467 30,000  Level Minneapolis Center
11:34AM 44.5522 -91.9989 302° West 407 468 30,000  Level Minneapolis Center
11:35AM 44.6117 -92.1347 302° West 410 472 30,000  Level Minneapolis Center
11:37AM 44.7314 -92.4067 301° West 411 473 30,000  Level Minneapolis Center
11:38AM 44.8025 -92.5717 301° West 413 475 30,000  Level Minneapolis Center
11:39AM 44.8614 -92.7078 301° West 411 473 30,000  Level Minneapolis Center
11:41AM 44.9778 -92.9806 301° West 410 472 30,000  Level Minneapolis Center
11:43AM 45.0931 -93.2522 297° West 408 470 30,000  Level Minneapolis Center
11:45AM 45.2358 -93.5392 308° West 409 471 30,000  Level Minneapolis Center
11:46AM 45.3050 -93.6658 308° West 408 470 30,000  Level Minneapolis Center
11:50AM 45.5108 -94.0497 311° West 408 470 30,000  Level Minneapolis Center
11:51AM 45.5794 -94.1772 308° West 408 470 30,000  Level Minneapolis Center
11:53AM 45.7161 -94.4325 308° West 405 466 30,000  Level Minneapolis Center
11:54AM 45.7969 -94.5889 307° West 406 467 30,000  Level Minneapolis Center
11:55AM 45.7912 -94.5686 311° West  Level FlightAware Approximate
11:56AM 45.9322 -94.8478 307° West 407 468 30,000  Level Minneapolis Center
11:57AM 45.9994 -94.9761 307° West 405 466 30,000  Level Minneapolis Center
11:58AM 46.0697 -95.1139 306° West 406 467 30,000 -720 Level Minneapolis Center
12:02PM 46.3372 -95.6403 302° West 411 473 26,500 -1,320 Descending Minneapolis Center
12:03PM 46.4075 -95.7786 306° West 423 487 23,300 -3,300 Descending Minneapolis Center
12:04PM 46.4831 -95.9297 306° West 412 474 19,800 -3,120 Descending Minneapolis Center
12:05PM 46.5436 -96.0619 304° West 375 432 17,000 -2,640 Descending Minneapolis Center
12:06PM 46.5922 -96.2000 297° West 367 422 14,400 -1,980 Descending Minneapolis Center
12:09PM 46.7194 -96.5467 306° West 272 313 9,000 -1,980 Descending Minneapolis Center
12:10PM 46.7514 -96.6344 298° West 257 296 6,500 -2,400 Descending Minneapolis Center
12:11PM 46.7839 -96.7278 297° West 248 285 4,100 -1,800 Descending Minneapolis Center
12:12PM 46.8111 -96.8111 296° West 213 245 2,900 -1,020 Descending Minneapolis Center
12:13PM 46.8539 -96.8167 355° North 151 174 2,100 -840 Descending Minneapolis Center